sensor_id;sensor_type;location;lat;lon;timestamp;P1;durP1;ratioP1;P2;durP2;ratioP2
51270;SDS011;37744;50.960;4.136;2022-12-10T00:00:35;152.75;;;41.78;;
51270;SDS011;37744;50.960;4.136;2022-12-10T00:03:00;146.25;;;43.03;;
51270;SDS011;37744;50.960;4.136;2022-12-10T00:05:26;148.48;;;42.60;;
51270;SDS011;37744;50.960;4.136;2022-12-10T00:07:51;168.85;;;42.42;;
51270;SDS011;37744;50.960;4.136;2022-12-10T00:10:17;169.90;;;42.53;;
51270;SDS011;37744;50.960;4.136;2022-12-10T00:12:42;151.93;;;41.80;;
51270;SDS011;37744;50.960;4.136;2022-12-10T00:15:07;140.98;;;40.88;;
51270;SDS011;37744;50.960;4.136;2022-12-10T00:17:33;179.52;;;45.72;;
51270;SDS011;37744;50.960;4.136;2022-12-10T00:19:58;152.23;;;42.08;;
51270;SDS011;37744;50.960;4.136;2022-12-10T00:22:23;162.27;;;44.65;;
51270;SDS011;37744;50.960;4.136;2022-12-10T00:24:49;153.65;;;44.58;;
51270;SDS011;37744;50.960;4.136;2022-12-10T00:27:14;174.32;;;46.63;;
51270;SDS011;37744;50.960;4.136;2022-12-10T00:29:39;188.55;;;48.72;;
51270;SDS011;37744;50.960;4.136;2022-12-10T00:32:05;189.10;;;47.70;;
51270;SDS011;37744;50.960;4.136;2022-12-10T00:34:31;196.25;;;50.45;;
51270;SDS011;37744;50.960;4.136;2022-12-10T00:36:56;192.90;;;48.05;;
51270;SDS011;37744;50.960;4.136;2022-12-10T00:39:21;212.70;;;49.25;;
51270;SDS011;37744;50.960;4.136;2022-12-10T00:41:47;197.75;;;47.63;;
51270;SDS011;37744;50.960;4.136;2022-12-10T00:44:12;187.15;;;46.67;;
51270;SDS011;37744;50.960;4.136;2022-12-10T00:46:38;178.60;;;45.70;;
51270;SDS011;37744;50.960;4.136;2022-12-10T00:49:03;207.05;;;45.45;;
51270;SDS011;37744;50.960;4.136;2022-12-10T00:51:29;184.30;;;45.83;;
51270;SDS011;37744;50.960;4.136;2022-12-10T00:53:55;196.32;;;48.33;;
51270;SDS011;37744;50.960;4.136;2022-12-10T00:56:25;167.52;;;44.47;;
51270;SDS011;37744;50.960;4.136;2022-12-10T00:58:51;160.88;;;41.45;;
51270;SDS011;37744;50.960;4.136;2022-12-10T01:03:45;170.90;;;43.30;;
51270;SDS011;37744;50.960;4.136;2022-12-10T01:06:13;165.80;;;43.60;;
51270;SDS011;37744;50.960;4.136;2022-12-10T01:08:38;157.38;;;42.35;;
51270;SDS011;37744;50.960;4.136;2022-12-10T01:11:04;171.60;;;44.10;;
51270;SDS011;37744;50.960;4.136;2022-12-10T01:13:29;169.55;;;52.55;;
51270;SDS011;37744;50.960;4.136;2022-12-10T01:15:54;161.57;;;40.85;;
51270;SDS011;37744;50.960;4.136;2022-12-10T01:18:19;151.32;;;41.78;;
51270;SDS011;37744;50.960;4.136;2022-12-10T01:20:44;167.93;;;44.45;;
51270;SDS011;37744;50.960;4.136;2022-12-10T01:23:10;175.20;;;45.70;;
51270;SDS011;37744;50.960;4.136;2022-12-10T01:25:35;191.35;;;43.95;;
51270;SDS011;37744;50.960;4.136;2022-12-10T01:28:00;167.05;;;43.53;;
51270;SDS011;37744;50.960;4.136;2022-12-10T01:30:25;183.32;;;43.80;;
51270;SDS011;37744;50.960;4.136;2022-12-10T01:32:51;157.95;;;44.22;;
51270;SDS011;37744;50.960;4.136;2022-12-10T01:35:16;160.93;;;44.00;;
51270;SDS011;37744;50.960;4.136;2022-12-10T01:37:41;160.57;;;43.72;;
51270;SDS011;37744;50.960;4.136;2022-12-10T01:40:07;191.18;;;48.42;;
51270;SDS011;37744;50.960;4.136;2022-12-10T01:42:32;197.70;;;46.20;;
51270;SDS011;37744;50.960;4.136;2022-12-10T01:44:59;210.18;;;48.97;;
51270;SDS011;37744;50.960;4.136;2022-12-10T01:47:25;196.50;;;47.30;;
51270;SDS011;37744;50.960;4.136;2022-12-10T01:49:50;204.10;;;49.40;;
51270;SDS011;37744;50.960;4.136;2022-12-10T01:52:16;227.05;;;53.50;;
51270;SDS011;37744;50.960;4.136;2022-12-10T01:54:42;246.48;;;53.47;;
51270;SDS011;37744;50.960;4.136;2022-12-10T01:57:13;173.77;;;44.13;;
51270;SDS011;37744;50.960;4.136;2022-12-10T01:59:39;208.38;;;47.38;;
51270;SDS011;37744;50.960;4.136;2022-12-10T02:04:39;217.73;;;51.28;;
51270;SDS011;37744;50.960;4.136;2022-12-10T02:07:13;189.35;;;43.53;;
51270;SDS011;37744;50.960;4.136;2022-12-10T02:09:45;229.23;;;48.47;;
51270;SDS011;37744;50.960;4.136;2022-12-10T02:12:19;215.60;;;51.00;;
51270;SDS011;37744;50.960;4.136;2022-12-10T02:14:51;245.43;;;51.10;;
51270;SDS011;37744;50.960;4.136;2022-12-10T02:17:19;221.57;;;48.30;;
51270;SDS011;37744;50.960;4.136;2022-12-10T02:22:20;284.25;;;51.85;;
51270;SDS011;37744;50.960;4.136;2022-12-10T02:24:46;244.50;;;51.40;;
51270;SDS011;37744;50.960;4.136;2022-12-10T02:27:17;225.73;;;49.63;;
51270;SDS011;37744;50.960;4.136;2022-12-10T02:29:44;184.18;;;44.60;;
51270;SDS011;37744;50.960;4.136;2022-12-10T02:32:12;206.60;;;51.00;;
51270;SDS011;37744;50.960;4.136;2022-12-10T02:34:40;226.65;;;50.25;;
51270;SDS011;37744;50.960;4.136;2022-12-10T02:37:14;211.05;;;48.10;;
51270;SDS011;37744;50.960;4.136;2022-12-10T02:39:43;256.83;;;51.22;;
51270;SDS011;37744;50.960;4.136;2022-12-10T02:42:09;247.90;;;50.45;;
51270;SDS011;37744;50.960;4.136;2022-12-10T02:44:36;238.00;;;52.58;;
51270;SDS011;37744;50.960;4.136;2022-12-10T02:47:02;242.50;;;55.35;;
51270;SDS011;37744;50.960;4.136;2022-12-10T02:49:27;184.07;;;47.95;;
51270;SDS011;37744;50.960;4.136;2022-12-10T02:51:53;291.60;;;51.25;;
51270;SDS011;37744;50.960;4.136;2022-12-10T02:57:12;220.80;;;47.92;;
51270;SDS011;37744;50.960;4.136;2022-12-10T03:02:22;232.88;;;48.53;;
51270;SDS011;37744;50.960;4.136;2022-12-10T03:07:18;235.73;;;50.15;;
51270;SDS011;37744;50.960;4.136;2022-12-10T03:09:55;234.90;;;51.22;;
51270;SDS011;37744;50.960;4.136;2022-12-10T03:12:31;299.20;;;61.20;;
51270;SDS011;37744;50.960;4.136;2022-12-10T03:14:58;205.68;;;47.80;;
51270;SDS011;37744;50.960;4.136;2022-12-10T03:17:24;230.43;;;50.42;;
51270;SDS011;37744;50.960;4.136;2022-12-10T03:19:50;250.93;;;50.33;;
51270;SDS011;37744;50.960;4.136;2022-12-10T03:22:17;266.42;;;52.60;;
51270;SDS011;37744;50.960;4.136;2022-12-10T03:24:43;321.80;;;61.97;;
51270;SDS011;37744;50.960;4.136;2022-12-10T03:27:09;255.32;;;50.90;;
51270;SDS011;37744;50.960;4.136;2022-12-10T03:29:37;327.85;;;59.85;;
51270;SDS011;37744;50.960;4.136;2022-12-10T03:32:03;241.55;;;49.95;;
51270;SDS011;37744;50.960;4.136;2022-12-10T03:34:28;269.25;;;50.97;;
51270;SDS011;37744;50.960;4.136;2022-12-10T03:36:54;287.05;;;55.75;;
51270;SDS011;37744;50.960;4.136;2022-12-10T03:39:19;245.00;;;48.58;;
51270;SDS011;37744;50.960;4.136;2022-12-10T03:41:45;275.88;;;54.33;;
51270;SDS011;37744;50.960;4.136;2022-12-10T03:44:10;223.35;;;49.40;;
51270;SDS011;37744;50.960;4.136;2022-12-10T03:46:35;238.57;;;50.10;;
51270;SDS011;37744;50.960;4.136;2022-12-10T03:49:01;243.52;;;48.35;;
51270;SDS011;37744;50.960;4.136;2022-12-10T03:51:26;263.33;;;52.30;;
51270;SDS011;37744;50.960;4.136;2022-12-10T03:53:52;284.17;;;52.42;;
51270;SDS011;37744;50.960;4.136;2022-12-10T03:56:18;429.02;;;65.30;;
51270;SDS011;37744;50.960;4.136;2022-12-10T03:58:43;270.05;;;50.95;;
51270;SDS011;37744;50.960;4.136;2022-12-10T04:01:09;295.63;;;57.20;;
51270;SDS011;37744;50.960;4.136;2022-12-10T04:03:38;365.23;;;63.55;;
51270;SDS011;37744;50.960;4.136;2022-12-10T04:06:04;378.45;;;59.88;;
51270;SDS011;37744;50.960;4.136;2022-12-10T04:08:30;379.23;;;61.70;;
51270;SDS011;37744;50.960;4.136;2022-12-10T04:11:00;386.60;;;69.13;;
51270;SDS011;37744;50.960;4.136;2022-12-10T04:13:26;369.85;;;60.00;;
51270;SDS011;37744;50.960;4.136;2022-12-10T04:19:00;382.88;;;62.40;;
51270;SDS011;37744;50.960;4.136;2022-12-10T04:21:26;467.73;;;78.20;;
51270;SDS011;37744;50.960;4.136;2022-12-10T04:24:12;367.73;;;61.33;;
51270;SDS011;37744;50.960;4.136;2022-12-10T04:26:56;318.08;;;56.05;;
51270;SDS011;37744;50.960;4.136;2022-12-10T04:29:22;349.70;;;60.70;;
51270;SDS011;37744;50.960;4.136;2022-12-10T04:31:48;294.20;;;56.45;;
51270;SDS011;37744;50.960;4.136;2022-12-10T04:34:13;423.15;;;64.75;;
51270;SDS011;37744;50.960;4.136;2022-12-10T04:36:39;343.45;;;59.95;;
51270;SDS011;37744;50.960;4.136;2022-12-10T04:39:04;343.13;;;59.05;;
51270;SDS011;37744;50.960;4.136;2022-12-10T04:41:29;421.98;;;64.25;;
51270;SDS011;37744;50.960;4.136;2022-12-10T04:43:54;342.67;;;57.03;;
51270;SDS011;37744;50.960;4.136;2022-12-10T04:46:20;344.35;;;64.80;;
51270;SDS011;37744;50.960;4.136;2022-12-10T04:48:45;306.23;;;58.17;;
51270;SDS011;37744;50.960;4.136;2022-12-10T04:51:10;332.00;;;62.00;;
51270;SDS011;37744;50.960;4.136;2022-12-10T04:53:36;327.90;;;63.55;;
51270;SDS011;37744;50.960;4.136;2022-12-10T04:56:01;370.20;;;67.45;;
51270;SDS011;37744;50.960;4.136;2022-12-10T04:58:30;400.95;;;66.25;;
51270;SDS011;37744;50.960;4.136;2022-12-10T05:01:05;345.90;;;62.08;;
51270;SDS011;37744;50.960;4.136;2022-12-10T05:03:31;319.75;;;63.95;;
51270;SDS011;37744;50.960;4.136;2022-12-10T05:06:07;343.75;;;66.40;;
51270;SDS011;37744;50.960;4.136;2022-12-10T05:08:33;353.45;;;66.72;;
51270;SDS011;37744;50.960;4.136;2022-12-10T05:11:02;347.75;;;66.35;;
51270;SDS011;37744;50.960;4.136;2022-12-10T05:13:28;324.95;;;68.47;;
51270;SDS011;37744;50.960;4.136;2022-12-10T05:15:53;368.58;;;65.03;;
51270;SDS011;37744;50.960;4.136;2022-12-10T05:18:18;377.83;;;64.65;;
51270;SDS011;37744;50.960;4.136;2022-12-10T05:20:43;344.63;;;61.00;;
51270;SDS011;37744;50.960;4.136;2022-12-10T05:23:08;367.23;;;65.07;;
51270;SDS011;37744;50.960;4.136;2022-12-10T05:28:24;369.15;;;74.47;;
51270;SDS011;37744;50.960;4.136;2022-12-10T05:30:49;431.33;;;77.13;;
51270;SDS011;37744;50.960;4.136;2022-12-10T05:33:14;411.17;;;74.90;;
51270;SDS011;37744;50.960;4.136;2022-12-10T05:35:40;401.40;;;75.50;;
51270;SDS011;37744;50.960;4.136;2022-12-10T05:38:05;393.52;;;70.78;;
51270;SDS011;37744;50.960;4.136;2022-12-10T05:40:34;434.20;;;75.82;;
51270;SDS011;37744;50.960;4.136;2022-12-10T05:43:00;384.48;;;68.53;;
51270;SDS011;37744;50.960;4.136;2022-12-10T05:45:25;361.90;;;64.57;;
51270;SDS011;37744;50.960;4.136;2022-12-10T05:47:50;348.45;;;64.68;;
51270;SDS011;37744;50.960;4.136;2022-12-10T05:50:15;373.75;;;65.70;;
51270;SDS011;37744;50.960;4.136;2022-12-10T05:52:41;304.40;;;55.67;;
51270;SDS011;37744;50.960;4.136;2022-12-10T05:55:06;356.65;;;61.33;;
51270;SDS011;37744;50.960;4.136;2022-12-10T05:57:31;289.80;;;56.90;;
51270;SDS011;37744;50.960;4.136;2022-12-10T05:59:56;387.75;;;70.85;;
51270;SDS011;37744;50.960;4.136;2022-12-10T06:02:22;288.23;;;57.88;;
51270;SDS011;37744;50.960;4.136;2022-12-10T06:04:47;353.20;;;63.90;;
51270;SDS011;37744;50.960;4.136;2022-12-10T06:07:12;399.73;;;65.47;;
51270;SDS011;37744;50.960;4.136;2022-12-10T06:09:37;326.60;;;64.55;;
51270;SDS011;37744;50.960;4.136;2022-12-10T06:12:03;345.23;;;63.25;;
51270;SDS011;37744;50.960;4.136;2022-12-10T06:14:28;305.92;;;58.63;;
51270;SDS011;37744;50.960;4.136;2022-12-10T06:16:53;374.27;;;61.47;;
51270;SDS011;37744;50.960;4.136;2022-12-10T06:19:19;359.40;;;60.53;;
51270;SDS011;37744;50.960;4.136;2022-12-10T06:21:44;326.27;;;59.22;;
51270;SDS011;37744;50.960;4.136;2022-12-10T06:24:09;296.90;;;57.17;;
51270;SDS011;37744;50.960;4.136;2022-12-10T06:26:34;394.48;;;70.07;;
51270;SDS011;37744;50.960;4.136;2022-12-10T06:29:00;311.02;;;55.97;;
51270;SDS011;37744;50.960;4.136;2022-12-10T06:31:25;332.48;;;56.03;;
51270;SDS011;37744;50.960;4.136;2022-12-10T06:33:51;254.65;;;50.05;;
51270;SDS011;37744;50.960;4.136;2022-12-10T06:36:17;275.20;;;53.55;;
51270;SDS011;37744;50.960;4.136;2022-12-10T06:38:42;303.60;;;55.55;;
51270;SDS011;37744;50.960;4.136;2022-12-10T06:41:09;281.58;;;55.53;;
51270;SDS011;37744;50.960;4.136;2022-12-10T06:43:34;323.38;;;55.88;;
51270;SDS011;37744;50.960;4.136;2022-12-10T06:46:03;300.92;;;55.03;;
51270;SDS011;37744;50.960;4.136;2022-12-10T06:48:29;267.38;;;50.88;;
51270;SDS011;37744;50.960;4.136;2022-12-10T06:50:55;253.93;;;50.78;;
51270;SDS011;37744;50.960;4.136;2022-12-10T06:53:20;336.52;;;54.28;;
51270;SDS011;37744;50.960;4.136;2022-12-10T06:55:45;301.60;;;55.65;;
51270;SDS011;37744;50.960;4.136;2022-12-10T06:58:10;313.15;;;57.35;;
51270;SDS011;37744;50.960;4.136;2022-12-10T07:00:36;275.45;;;53.90;;
51270;SDS011;37744;50.960;4.136;2022-12-10T07:03:01;372.83;;;58.50;;
51270;SDS011;37744;50.960;4.136;2022-12-10T07:05:26;369.30;;;60.47;;
51270;SDS011;37744;50.960;4.136;2022-12-10T07:07:51;338.48;;;59.45;;
51270;SDS011;37744;50.960;4.136;2022-12-10T07:10:17;321.17;;;56.45;;
51270;SDS011;37744;50.960;4.136;2022-12-10T07:12:42;346.65;;;49.83;;
51270;SDS011;37744;50.960;4.136;2022-12-10T07:15:07;294.92;;;51.90;;
51270;SDS011;37744;50.960;4.136;2022-12-10T07:17:33;307.35;;;52.20;;
51270;SDS011;37744;50.960;4.136;2022-12-10T07:19:58;286.90;;;49.78;;
51270;SDS011;37744;50.960;4.136;2022-12-10T07:22:23;284.88;;;50.63;;
51270;SDS011;37744;50.960;4.136;2022-12-10T07:24:49;264.35;;;47.92;;
51270;SDS011;37744;50.960;4.136;2022-12-10T07:27:15;226.45;;;44.60;;
51270;SDS011;37744;50.960;4.136;2022-12-10T07:29:41;270.10;;;46.85;;
51270;SDS011;37744;50.960;4.136;2022-12-10T07:32:06;186.38;;;38.78;;
51270;SDS011;37744;50.960;4.136;2022-12-10T07:34:31;286.23;;;44.70;;
51270;SDS011;37744;50.960;4.136;2022-12-10T07:36:56;340.63;;;50.15;;
51270;SDS011;37744;50.960;4.136;2022-12-10T07:39:22;174.45;;;35.15;;
51270;SDS011;37744;50.960;4.136;2022-12-10T07:41:48;282.75;;;46.03;;
51270;SDS011;37744;50.960;4.136;2022-12-10T07:44:15;227.07;;;40.30;;
51270;SDS011;37744;50.960;4.136;2022-12-10T07:46:41;316.52;;;49.30;;
51270;SDS011;37744;50.960;4.136;2022-12-10T07:49:06;253.40;;;43.60;;
51270;SDS011;37744;50.960;4.136;2022-12-10T07:51:31;217.80;;;40.58;;
51270;SDS011;37744;50.960;4.136;2022-12-10T07:53:57;250.45;;;42.30;;
51270;SDS011;37744;50.960;4.136;2022-12-10T07:56:22;301.08;;;49.10;;
51270;SDS011;37744;50.960;4.136;2022-12-10T07:58:49;235.93;;;40.22;;
51270;SDS011;37744;50.960;4.136;2022-12-10T08:01:16;246.38;;;39.60;;
51270;SDS011;37744;50.960;4.136;2022-12-10T08:03:41;298.42;;;49.17;;
51270;SDS011;37744;50.960;4.136;2022-12-10T08:06:08;224.75;;;41.25;;
51270;SDS011;37744;50.960;4.136;2022-12-10T08:08:34;196.98;;;39.63;;
51270;SDS011;37744;50.960;4.136;2022-12-10T08:11:00;201.60;;;38.55;;
51270;SDS011;37744;50.960;4.136;2022-12-10T08:13:25;165.15;;;32.67;;
51270;SDS011;37744;50.960;4.136;2022-12-10T08:15:51;201.73;;;41.53;;
51270;SDS011;37744;50.960;4.136;2022-12-10T08:18:16;205.25;;;41.53;;
51270;SDS011;37744;50.960;4.136;2022-12-10T08:20:42;204.13;;;39.67;;
51270;SDS011;37744;50.960;4.136;2022-12-10T08:23:07;219.27;;;38.05;;
51270;SDS011;37744;50.960;4.136;2022-12-10T08:25:33;202.65;;;36.65;;
51270;SDS011;37744;50.960;4.136;2022-12-10T08:27:58;244.15;;;41.25;;
51270;SDS011;37744;50.960;4.136;2022-12-10T08:30:24;226.20;;;40.60;;
51270;SDS011;37744;50.960;4.136;2022-12-10T08:32:50;170.07;;;34.38;;
51270;SDS011;37744;50.960;4.136;2022-12-10T08:35:15;229.05;;;41.17;;
51270;SDS011;37744;50.960;4.136;2022-12-10T08:37:41;206.68;;;37.22;;
51270;SDS011;37744;50.960;4.136;2022-12-10T08:40:07;172.43;;;35.53;;
51270;SDS011;37744;50.960;4.136;2022-12-10T08:42:32;179.50;;;34.53;;
51270;SDS011;37744;50.960;4.136;2022-12-10T08:44:58;169.88;;;32.95;;
51270;SDS011;37744;50.960;4.136;2022-12-10T08:47:23;179.02;;;36.35;;
51270;SDS011;37744;50.960;4.136;2022-12-10T08:49:48;173.75;;;36.95;;
51270;SDS011;37744;50.960;4.136;2022-12-10T08:52:13;165.55;;;35.10;;
51270;SDS011;37744;50.960;4.136;2022-12-10T08:54:38;172.07;;;37.47;;
51270;SDS011;37744;50.960;4.136;2022-12-10T08:57:04;172.70;;;35.72;;
51270;SDS011;37744;50.960;4.136;2022-12-10T08:59:29;166.93;;;34.05;;
51270;SDS011;37744;50.960;4.136;2022-12-10T09:01:54;182.07;;;34.85;;
51270;SDS011;37744;50.960;4.136;2022-12-10T09:04:20;174.80;;;33.05;;
51270;SDS011;37744;50.960;4.136;2022-12-10T09:06:45;153.85;;;30.83;;
51270;SDS011;37744;50.960;4.136;2022-12-10T09:09:11;184.50;;;33.83;;
51270;SDS011;37744;50.960;4.136;2022-12-10T09:11:36;179.70;;;33.55;;
51270;SDS011;37744;50.960;4.136;2022-12-10T09:14:01;172.88;;;31.52;;
51270;SDS011;37744;50.960;4.136;2022-12-10T09:16:28;185.43;;;32.85;;
51270;SDS011;37744;50.960;4.136;2022-12-10T09:18:53;167.25;;;33.28;;
51270;SDS011;37744;50.960;4.136;2022-12-10T09:21:18;201.00;;;34.05;;
51270;SDS011;37744;50.960;4.136;2022-12-10T09:23:44;192.60;;;31.58;;
51270;SDS011;37744;50.960;4.136;2022-12-10T09:26:10;204.75;;;34.45;;
51270;SDS011;37744;50.960;4.136;2022-12-10T09:28:36;156.45;;;32.70;;
51270;SDS011;37744;50.960;4.136;2022-12-10T09:31:02;171.55;;;34.10;;
51270;SDS011;37744;50.960;4.136;2022-12-10T09:33:28;159.38;;;33.38;;
51270;SDS011;37744;50.960;4.136;2022-12-10T09:35:53;165.07;;;34.20;;
51270;SDS011;37744;50.960;4.136;2022-12-10T09:38:19;152.30;;;33.63;;
51270;SDS011;37744;50.960;4.136;2022-12-10T09:41:03;183.00;;;36.88;;
51270;SDS011;37744;50.960;4.136;2022-12-10T09:46:17;137.45;;;32.20;;
51270;SDS011;37744;50.960;4.136;2022-12-10T09:51:25;163.18;;;33.42;;
51270;SDS011;37744;50.960;4.136;2022-12-10T09:53:54;149.85;;;33.47;;
51270;SDS011;37744;50.960;4.136;2022-12-10T09:56:25;190.13;;;34.13;;
51270;SDS011;37744;50.960;4.136;2022-12-10T09:58:51;159.80;;;33.50;;
51270;SDS011;37744;50.960;4.136;2022-12-10T10:01:17;159.15;;;32.25;;
51270;SDS011;37744;50.960;4.136;2022-12-10T10:03:44;189.82;;;37.63;;
51270;SDS011;37744;50.960;4.136;2022-12-10T10:06:12;184.98;;;38.10;;
51270;SDS011;37744;50.960;4.136;2022-12-10T10:11:03;139.30;;;33.13;;
51270;SDS011;37744;50.960;4.136;2022-12-10T10:13:31;166.18;;;35.53;;
51270;SDS011;37744;50.960;4.136;2022-12-10T10:16:12;149.85;;;32.60;;
51270;SDS011;37744;50.960;4.136;2022-12-10T10:18:45;176.18;;;33.25;;
51270;SDS011;37744;50.960;4.136;2022-12-10T10:21:13;199.18;;;36.42;;
51270;SDS011;37744;50.960;4.136;2022-12-10T10:23:40;149.98;;;35.25;;
51270;SDS011;37744;50.960;4.136;2022-12-10T10:26:07;129.45;;;31.13;;
51270;SDS011;37744;50.960;4.136;2022-12-10T10:28:32;139.63;;;31.65;;
51270;SDS011;37744;50.960;4.136;2022-12-10T10:30:57;159.38;;;30.45;;
51270;SDS011;37744;50.960;4.136;2022-12-10T10:33:23;168.75;;;32.78;;
51270;SDS011;37744;50.960;4.136;2022-12-10T10:35:49;163.88;;;32.78;;
51270;SDS011;37744;50.960;4.136;2022-12-10T10:38:18;151.50;;;30.52;;
51270;SDS011;37744;50.960;4.136;2022-12-10T10:40:45;168.48;;;31.77;;
51270;SDS011;37744;50.960;4.136;2022-12-10T10:45:54;142.02;;;32.03;;
51270;SDS011;37744;50.960;4.136;2022-12-10T10:48:23;140.32;;;32.70;;
51270;SDS011;37744;50.960;4.136;2022-12-10T10:50:56;182.95;;;32.60;;
51270;SDS011;37744;50.960;4.136;2022-12-10T10:53:31;162.40;;;32.75;;
51270;SDS011;37744;50.960;4.136;2022-12-10T10:56:04;163.27;;;35.70;;
51270;SDS011;37744;50.960;4.136;2022-12-10T10:58:30;194.90;;;35.20;;
51270;SDS011;37744;50.960;4.136;2022-12-10T11:01:06;176.18;;;34.60;;
51270;SDS011;37744;50.960;4.136;2022-12-10T11:03:33;184.02;;;35.22;;
51270;SDS011;37744;50.960;4.136;2022-12-10T11:05:58;160.02;;;31.67;;
51270;SDS011;37744;50.960;4.136;2022-12-10T11:08:25;143.20;;;30.98;;
51270;SDS011;37744;50.960;4.136;2022-12-10T11:10:51;181.43;;;36.90;;
51270;SDS011;37744;50.960;4.136;2022-12-10T11:13:24;168.10;;;34.25;;
51270;SDS011;37744;50.960;4.136;2022-12-10T11:16:12;138.23;;;31.92;;
51270;SDS011;37744;50.960;4.136;2022-12-10T11:18:37;157.45;;;30.83;;
51270;SDS011;37744;50.960;4.136;2022-12-10T11:23:40;164.35;;;32.38;;
51270;SDS011;37744;50.960;4.136;2022-12-10T11:34:19;133.02;;;26.90;;
51270;SDS011;37744;50.960;4.136;2022-12-10T11:42:08;165.43;;;33.67;;
51270;SDS011;37744;50.960;4.136;2022-12-10T11:44:47;141.13;;;31.85;;
51270;SDS011;37744;50.960;4.136;2022-12-10T11:50:00;138.95;;;31.50;;
51270;SDS011;37744;50.960;4.136;2022-12-10T11:52:40;143.55;;;33.47;;
51270;SDS011;37744;50.960;4.136;2022-12-10T11:55:21;122.78;;;29.63;;
51270;SDS011;37744;50.960;4.136;2022-12-10T11:57:54;133.15;;;30.38;;
51270;SDS011;37744;50.960;4.136;2022-12-10T12:00:24;123.30;;;29.00;;
51270;SDS011;37744;50.960;4.136;2022-12-10T12:03:07;136.55;;;30.15;;
51270;SDS011;37744;50.960;4.136;2022-12-10T12:08:21;131.48;;;32.30;;
51270;SDS011;37744;50.960;4.136;2022-12-10T12:13:26;135.30;;;31.58;;
51270;SDS011;37744;50.960;4.136;2022-12-10T12:15:58;126.65;;;31.38;;
51270;SDS011;37744;50.960;4.136;2022-12-10T12:18:32;130.82;;;31.80;;
51270;SDS011;37744;50.960;4.136;2022-12-10T12:21:04;132.02;;;32.05;;
51270;SDS011;37744;50.960;4.136;2022-12-10T12:23:49;128.90;;;31.63;;
51270;SDS011;37744;50.960;4.136;2022-12-10T12:26:35;132.48;;;31.48;;
51270;SDS011;37744;50.960;4.136;2022-12-10T12:29:13;129.45;;;30.83;;
51270;SDS011;37744;50.960;4.136;2022-12-10T12:32:16;117.07;;;31.17;;
51270;SDS011;37744;50.960;4.136;2022-12-10T12:36:59;119.80;;;32.05;;
51270;SDS011;37744;50.960;4.136;2022-12-10T12:46:54;118.37;;;30.13;;
51270;SDS011;37744;50.960;4.136;2022-12-10T12:51:51;121.95;;;30.60;;
51270;SDS011;37744;50.960;4.136;2022-12-10T12:54:17;131.75;;;30.83;;
51270;SDS011;37744;50.960;4.136;2022-12-10T12:59:21;126.38;;;29.63;;
51270;SDS011;37744;50.960;4.136;2022-12-10T13:04:16;126.47;;;31.17;;
51270;SDS011;37744;50.960;4.136;2022-12-10T13:06:41;119.85;;;29.95;;
51270;SDS011;37744;50.960;4.136;2022-12-10T13:11:38;103.68;;;27.90;;
51270;SDS011;37744;50.960;4.136;2022-12-10T13:24:21;124.00;;;30.13;;
51270;SDS011;37744;50.960;4.136;2022-12-10T13:29:27;119.90;;;31.45;;
51270;SDS011;37744;50.960;4.136;2022-12-10T13:32:41;113.90;;;29.98;;
51270;SDS011;37744;50.960;4.136;2022-12-10T13:34:41;124.80;;;29.15;;
51270;SDS011;37744;50.960;4.136;2022-12-10T13:39:50;126.60;;;31.23;;
51270;SDS011;37744;50.960;4.136;2022-12-10T13:45:02;122.93;;;31.90;;
51270;SDS011;37744;50.960;4.136;2022-12-10T13:47:40;133.57;;;33.13;;
51270;SDS011;37744;50.960;4.136;2022-12-10T13:57:56;118.97;;;30.02;;
51270;SDS011;37744;50.960;4.136;2022-12-10T14:00:35;130.85;;;32.22;;
51270;SDS011;37744;50.960;4.136;2022-12-10T14:06:06;128.02;;;32.13;;
51270;SDS011;37744;50.960;4.136;2022-12-10T14:08:35;137.70;;;33.58;;
51270;SDS011;37744;50.960;4.136;2022-12-10T14:11:04;127.68;;;32.53;;
51270;SDS011;37744;50.960;4.136;2022-12-10T14:13:35;116.93;;;30.83;;
51270;SDS011;37744;50.960;4.136;2022-12-10T14:16:01;143.38;;;33.83;;
51270;SDS011;37744;50.960;4.136;2022-12-10T14:18:27;133.18;;;31.52;;
51270;SDS011;37744;50.960;4.136;2022-12-10T14:20:53;137.70;;;31.67;;
51270;SDS011;37744;50.960;4.136;2022-12-10T14:23:26;136.77;;;33.03;;
51270;SDS011;37744;50.960;4.136;2022-12-10T14:25:58;134.18;;;32.72;;
51270;SDS011;37744;50.960;4.136;2022-12-10T14:28:29;142.93;;;37.58;;
51270;SDS011;37744;50.960;4.136;2022-12-10T14:30:54;139.48;;;35.63;;
51270;SDS011;37744;50.960;4.136;2022-12-10T14:33:21;150.00;;;36.90;;
51270;SDS011;37744;50.960;4.136;2022-12-10T14:35:48;157.77;;;38.13;;
51270;SDS011;37744;50.960;4.136;2022-12-10T14:38:21;140.48;;;36.05;;
51270;SDS011;37744;50.960;4.136;2022-12-10T14:40:48;164.90;;;39.70;;
51270;SDS011;37744;50.960;4.136;2022-12-10T14:43:17;178.98;;;43.78;;
51270;SDS011;37744;50.960;4.136;2022-12-10T14:48:10;159.00;;;42.72;;
51270;SDS011;37744;50.960;4.136;2022-12-10T14:50:36;136.00;;;36.08;;
51270;SDS011;37744;50.960;4.136;2022-12-10T14:53:02;145.90;;;38.05;;
51270;SDS011;37744;50.960;4.136;2022-12-10T14:55:28;129.90;;;35.90;;
51270;SDS011;37744;50.960;4.136;2022-12-10T14:57:58;135.10;;;35.42;;
51270;SDS011;37744;50.960;4.136;2022-12-10T15:00:24;120.28;;;32.65;;
51270;SDS011;37744;50.960;4.136;2022-12-10T15:02:51;124.22;;;32.92;;
51270;SDS011;37744;50.960;4.136;2022-12-10T15:05:19;116.65;;;31.88;;
51270;SDS011;37744;50.960;4.136;2022-12-10T15:07:55;124.40;;;32.50;;
51270;SDS011;37744;50.960;4.136;2022-12-10T15:10:23;122.18;;;35.55;;
51270;SDS011;37744;50.960;4.136;2022-12-10T15:12:49;115.53;;;30.02;;
51270;SDS011;37744;50.960;4.136;2022-12-10T15:15:16;133.07;;;32.38;;
51270;SDS011;37744;50.960;4.136;2022-12-10T15:17:50;121.85;;;31.05;;
51270;SDS011;37744;50.960;4.136;2022-12-10T15:20:22;111.25;;;30.02;;
51270;SDS011;37744;50.960;4.136;2022-12-10T15:22:47;107.47;;;30.90;;
51270;SDS011;37744;50.960;4.136;2022-12-10T15:25:23;115.53;;;32.75;;
51270;SDS011;37744;50.960;4.136;2022-12-10T15:27:55;114.47;;;32.47;;
51270;SDS011;37744;50.960;4.136;2022-12-10T15:30:22;116.77;;;32.60;;
51270;SDS011;37744;50.960;4.136;2022-12-10T15:32:48;119.32;;;32.15;;
51270;SDS011;37744;50.960;4.136;2022-12-10T15:35:13;121.03;;;34.67;;
51270;SDS011;37744;50.960;4.136;2022-12-10T15:37:39;113.25;;;32.95;;
51270;SDS011;37744;50.960;4.136;2022-12-10T15:40:28;107.15;;;29.95;;
51270;SDS011;37744;50.960;4.136;2022-12-10T15:42:51;96.95;;;31.02;;
51270;SDS011;37744;50.960;4.136;2022-12-10T15:45:24;108.97;;;31.55;;
51270;SDS011;37744;50.960;4.136;2022-12-10T15:47:51;109.03;;;30.23;;
51270;SDS011;37744;50.960;4.136;2022-12-10T15:50:16;111.00;;;31.35;;
51270;SDS011;37744;50.960;4.136;2022-12-10T15:52:42;102.70;;;31.83;;
51270;SDS011;37744;50.960;4.136;2022-12-10T15:55:10;107.57;;;31.90;;
51270;SDS011;37744;50.960;4.136;2022-12-10T15:57:37;96.75;;;30.85;;